KPEQ

Details ICAO KPEQ (PEQ)
Name PECOS MUNI
Region United States
Timezone America/Chicago (UTC-5.0)
Plans Departing 6
Arriving 9
Stats Elevation 2,612 ft / 796 m (AMSL)
Location 31.382327° -103.510693°
Runways 2
Magnetic Variation 6.792° E
Sunrise 2018-05-26 11:53:36 UTC / 2018-05-26 06:53:36 Local
Sunset 2018-05-27 01:51:30 UTC / 2018-05-26 20:51:30 Local
Advertisement - Login to hide

Runways

ID Width Length Bearing (true) Bearing (mag) Surface Threshold Offset Overrun Length
09 80 ft / 24 m 5,945 ft / 1,812 m 101.26° 94.47° Asphalt 0 ft / 0 m 0 ft / 0 m
14 80 ft / 24 m 6,246 ft / 1,904 m 146.34° 139.55° Asphalt 0 ft / 0 m 0 ft / 0 m
27 80 ft / 24 m 5,945 ft / 1,812 m 281.27° 274.48° Asphalt 0 ft / 0 m 0 ft / 0 m
32 80 ft / 24 m 6,246 ft / 1,904 m 326.34° 319.55° Asphalt 0 ft / 0 m 0 ft / 0 m

Map

Weather


0- 5 10 15 20 25 30 35+ Temperature / ° C

Clouds and Precipitation
Forecast for 2018-05-26 06:00 UTC. Updated 4 hours ago

Ground ~20,000 ft ~40,000 ft Winds

METAR

KPEQ 260835Z AUTO 20008KT 10SM CLR 21/10 A2985 RMK AO2 T02080096

TAF

KPEQ 260522Z 2606/2706 22006KT P6SM FEW130 SCT250

Frequencies

Recorded 118.17 MHz AWOS 3
Unicom 122.80 MHz CTAF/UNICOM
Warning: Do not use this data for real-world aviation or navigation. No guarantee of current accuracy is given.